Aviation Digital Data Service (ADDS)

Output produced by TAFs form (1958 UTC 25 February 2018)
found at http://aviationweather.gov/adds/tafs/
 
Forecast for: RJNS (SHIZOUKA , JP)
Text: TAF RJNS 251705Z 2518/2700 02004KT 9999 FEW025 SCT050
Forecast period: 1800 to 2300 UTC 25 February 2018
Forecast type: FROM: standard forecast or significant change
Winds: from the NNE (20 degrees) at 5 MPH (4 knots; 2.1 m/s)
Visibility: 6 or more miles (10+ km)
Clouds: few clouds at 2500 feet AGL
scattered clouds at 5000 feet AGL
Weather: no significant weather forecast for this period
Text: BECMG 2523/2601 12006KT
Forecast period: 2300 UTC 25 February 2018 to 0900 UTC 26 February 2018
Forecast type: BECOMING: Conditions expected to become as follows by 0100 UTC 26 February 2018
Winds: from the ESE (120 degrees) at 7 MPH (6 knots; 3.1 m/s)
Visibility: 6 or more miles (10+ km)
Clouds: few clouds at 2500 feet AGL
scattered clouds at 5000 feet AGL
Weather: no significant weather forecast for this period
Text: BECMG 2609/2612 36004KT
Forecast period: 0900 UTC 26 February 2018 to 0000 UTC 27 February 2018
Forecast type: BECOMING: Conditions expected to become as follows by 1200 UTC 26 February 2018
Winds: from the N (360 degrees) at 5 MPH (4 knots; 2.1 m/s)
Visibility: 6 or more miles (10+ km)
Clouds: few clouds at 2500 feet AGL
scattered clouds at 5000 feet AGL
Weather: no significant weather forecast for this period